Time;durP1;ratioP1;P1;durP2;ratioP2;P2;SDS_P1;SDS_P2;PMS_P1;PMS_P2;Temp;Humidity;BMP_temperature;BMP_pressure;BME280_temperature;BME280_humidity;BME280_pressure;Samples;Min_cycle;Max_cycle;Signal;HPM_P1;HPM_P2
2024/01/16 00:00:57;;;;;;;12.23;6.75;;;;;;;0.33;92.66;98456.03;4905796;29;20486;-76
2024/01/16 00:03:42;;;;;;;7.45;4.03;;;;;;;0.24;92.84;98465.78;4906641;29;20075;-77
2024/01/16 00:06:27;;;;;;;9.68;5.80;;;;;;;0.18;93.07;98461.28;4905669;29;20059;-77
2024/01/16 00:09:13;;;;;;;25.77;10.05;;;;;;;0.09;93.08;98463.16;4893962;29;20059;-78
2024/01/16 00:11:59;;;;;;;26.73;11.85;;;;;;;0.07;93.25;98469.59;4919631;29;20510;-78
2024/01/16 00:14:44;;;;;;;30.42;13.23;;;;;;;0.06;93.43;98478.38;4893032;29;20067;-76
2024/01/16 00:17:30;;;;;;;36.05;15.80;;;;;;;0.05;93.83;98497.69;4894376;29;20495;-77
2024/01/16 00:20:16;;;;;;;18.50;8.82;;;;;;;-0.07;93.81;98484.25;4905906;29;20059;-77
2024/01/16 00:23:01;;;;;;;15.93;9.10;;;;;;;-0.09;93.97;98492.28;4893696;29;20059;-77
2024/01/16 00:25:47;;;;;;;15.75;8.98;;;;;;;-0.06;93.82;98517.22;4894293;29;20392;-77
2024/01/16 00:28:32;;;;;;;13.77;7.85;;;;;;;-0.02;94.51;98534.16;4893015;29;20075;-77
2024/01/16 00:31:19;;;;;;;15.60;7.82;;;;;;;-0.06;94.25;98543.34;4912897;29;20059;-77
2024/01/16 00:34:05;;;;;;;17.25;9.32;;;;;;;-0.07;94.56;98545.13;4895543;29;20059;-77
2024/01/16 00:36:50;;;;;;;23.60;10.35;;;;;;;-0.11;94.28;98532.63;4895021;29;20071;-77
2024/01/16 00:39:36;;;;;;;20.48;10.60;;;;;;;-0.19;94.69;98524.84;4899026;29;20052;-76
2024/01/16 00:42:21;;;;;;;19.02;10.98;;;;;;;-0.22;94.40;98536.44;4917153;29;20055;-76
2024/01/16 00:45:07;;;;;;;13.90;9.15;;;;;;;-0.18;94.60;98560.44;4908571;29;20067;-77
2024/01/16 00:47:52;;;;;;;15.05;8.77;;;;;;;-0.17;94.64;98567.28;4894938;29;20479;-78
2024/01/16 00:50:38;;;;;;;17.40;10.00;;;;;;;-0.22;95.14;98557.34;4893672;29;20403;-77
2024/01/16 00:53:23;;;;;;;15.75;8.35;;;;;;;-0.27;95.28;98568.34;4892573;29;20083;-78
2024/01/16 00:56:09;;;;;;;20.52;10.32;;;;;;;-0.34;95.07;98564.00;4912608;29;20391;-77
2024/01/16 00:58:55;;;;;;;10.77;6.43;;;;;;;-0.28;95.11;98592.84;4905201;29;20427;-76
2024/01/16 01:01:40;;;;;;;9.98;6.32;;;;;;;-0.27;95.13;98593.63;4928508;28;20078;-77
2024/01/16 01:04:26;;;;;;;10.98;5.78;;;;;;;-0.35;95.29;98581.44;4895893;29;20063;-78
2024/01/16 01:07:14;;;;;;;12.77;8.25;;;;;;;-0.35;95.10;98593.69;4896070;29;20396;-76
2024/01/16 01:10:00;;;;;;;16.55;8.88;;;;;;;-0.30;95.12;98615.69;4896228;29;20510;-78
2024/01/16 01:12:45;;;;;;;20.17;10.82;;;;;;;-0.36;95.19;98597.28;4895944;29;20047;-77
2024/01/16 01:15:31;;;;;;;16.40;9.18;;;;;;;-0.29;95.51;98627.75;4896499;29;20395;-77
2024/01/16 01:18:16;;;;;;;20.45;11.38;;;;;;;-0.30;94.92;98620.09;4914580;29;20486;-77
2024/01/16 01:21:03;;;;;;;18.77;9.40;;;;;;;-0.33;95.70;98628.28;4909134;29;20071;-79
2024/01/16 01:23:48;;;;;;;23.88;14.40;;;;;;;-0.36;95.15;98620.78;4908599;29;20412;-76
2024/01/16 01:26:33;;;;;;;19.02;11.05;;;;;;;-0.31;95.95;98619.28;4908109;29;20079;-79
2024/01/16 01:29:19;;;;;;;20.15;10.68;;;;;;;-0.30;95.40;98607.84;4928461;28;20475;-77
2024/01/16 01:32:05;;;;;;;18.25;9.00;;;;;;;-0.30;96.11;98609.66;4896202;29;20415;-77
2024/01/16 01:34:50;;;;;;;19.88;9.85;;;;;;;-0.34;95.80;98600.56;4907704;29;20495;-79
2024/01/16 01:37:35;;;;;;;29.95;13.20;;;;;;;-0.35;95.36;98606.75;4896873;29;20083;-77
2024/01/16 01:40:21;;;;;;;24.92;12.40;;;;;;;-0.40;95.90;98603.88;4894510;29;20407;-78
2024/01/16 01:43:24;;;;;;;21.88;10.73;;;;;;;-0.38;95.93;98601.88;4908869;29;20063;-77
2024/01/16 01:46:10;;;;;;;19.27;9.45;;;;;;;-0.35;95.52;98619.78;4894720;29;20518;-78
2024/01/16 01:48:55;;;;;;;15.85;9.18;;;;;;;-0.37;95.66;98619.19;4914973;29;20059;-77
2024/01/16 01:51:41;;;;;;;23.70;12.23;;;;;;;-0.42;95.87;98611.03;4895524;29;20387;-78
2024/01/16 01:54:27;;;;;;;18.08;9.50;;;;;;;-0.36;95.90;98629.44;4895365;29;20518;-78
2024/01/16 01:57:13;;;;;;;14.60;7.75;;;;;;;-0.37;95.97;98632.22;4908025;29;20055;-78
2024/01/16 01:59:59;;;;;;;10.05;6.22;;;;;;;-0.39;96.03;98616.72;4922726;29;20055;-78
2024/01/16 02:02:46;;;;;;;10.60;6.50;;;;;;;-0.37;95.82;98627.00;4916560;29;20403;-78
2024/01/16 02:05:32;;;;;;;24.13;10.90;;;;;;;-0.36;96.11;98624.22;4923498;29;20059;-77
2024/01/16 02:08:19;;;;;;;28.30;16.35;;;;;;;-0.37;96.14;98621.78;4911628;29;20486;-77
2024/01/16 02:11:04;;;;;;;24.10;13.65;;;;;;;-0.34;95.63;98624.88;4895134;29;20059;-76
2024/01/16 02:13:49;;;;;;;25.08;13.48;;;;;;;-0.34;96.23;98637.09;4894263;29;20063;-77
2024/01/16 02:16:40;;;;;;;18.80;11.52;;;;;;;-0.35;95.83;98638.88;4895232;29;20071;-78
2024/01/16 02:19:25;;;;;;;19.40;10.98;;;;;;;-0.34;95.92;98652.78;4907155;29;20095;-77
2024/01/16 02:22:15;;;;;;;13.27;8.23;;;;;;;-0.34;95.57;98668.44;4894017;29;20487;-78
2024/01/16 02:25:01;;;;;;;16.77;8.45;;;;;;;-0.40;95.92;98674.34;4907937;29;20048;-80
2024/01/16 02:27:47;;;;;;;21.40;10.60;;;;;;;-0.31;96.42;98675.94;4907344;29;20067;-77
2024/01/16 02:30:32;;;;;;;22.05;11.00;;;;;;;-0.34;96.04;98684.09;4907767;29;20479;-77
2024/01/16 02:33:18;;;;;;;25.52;12.15;;;;;;;-0.32;96.46;98705.63;4895576;29;20399;-77
2024/01/16 02:36:03;;;;;;;34.40;16.85;;;;;;;-0.30;96.26;98708.88;4907414;29;20487;-78
2024/01/16 02:38:49;;;;;;;51.25;23.80;;;;;;;-0.34;96.34;98697.16;4895908;29;20055;-76
2024/01/16 02:41:34;;;;;;;24.27;12.98;;;;;;;-0.34;95.84;98695.38;4927731;28;20059;-78
2024/01/16 02:44:20;;;;;;;12.73;7.85;;;;;;;-0.39;95.90;98699.47;4895501;29;20063;-78
2024/01/16 02:47:07;;;;;;;11.52;6.32;;;;;;;-0.55;96.28;98687.31;4907216;29;20522;-77
2024/01/16 02:49:52;;;;;;;10.32;6.20;;;;;;;-0.46;96.33;98704.56;4895153;29;20495;-78
2024/01/16 02:52:37;;;;;;;11.70;6.38;;;;;;;-0.41;96.53;98707.47;4895816;29;20063;-77
2024/01/16 02:55:23;;;;;;;13.70;8.65;;;;;;;-0.46;96.15;98696.72;4895623;29;20471;-77
2024/01/16 02:58:09;;;;;;;17.77;9.32;;;;;;;-0.47;96.32;98698.53;4895778;29;20044;-77
2024/01/16 03:00:55;;;;;;;17.33;9.38;;;;;;;-0.55;96.24;98692.53;4895531;29;20411;-77
2024/01/16 03:03:40;;;;;;;14.93;8.43;;;;;;;-0.45;96.86;98710.59;4895365;29;20075;-78
2024/01/16 03:06:25;;;;;;;13.13;8.27;;;;;;;-0.50;96.49;98729.41;4895374;29;20059;-78
2024/01/16 03:09:12;;;;;;;18.13;9.55;;;;;;;-0.48;96.73;98723.00;4907372;29;20100;-78
2024/01/16 03:11:59;;;;;;;19.30;12.93;;;;;;;-0.50;96.39;98719.75;4913042;29;20059;-78
2024/01/16 03:14:44;;;;;;;14.45;9.32;;;;;;;-0.47;96.78;98726.41;4894965;29;20419;-78
2024/01/16 03:17:30;;;;;;;14.98;8.57;;;;;;;-0.51;96.94;98728.56;4894405;29;20052;-78
2024/01/16 03:20:16;;;;;;;16.88;10.02;;;;;;;-0.49;96.87;98726.59;4894821;29;20071;-78
2024/01/16 03:23:01;;;;;;;17.10;10.23;;;;;;;-0.50;96.70;98732.00;4906632;29;20051;-78
2024/01/16 03:25:46;;;;;;;16.00;9.23;;;;;;;-0.43;97.15;98758.25;4895780;29;20411;-78
2024/01/16 03:28:31;;;;;;;12.20;8.13;;;;;;;-0.52;96.96;98752.22;4913738;29;20063;-79
2024/01/16 03:31:19;;;;;;;11.35;6.70;;;;;;;-0.54;96.82;98752.38;4901402;29;20486;-78
2024/01/16 03:34:04;;;;;;;13.95;9.05;;;;;;;-0.49;97.21;98762.34;4907652;29;20066;-77
2024/01/16 03:36:49;;;;;;;12.35;8.18;;;;;;;-0.50;97.02;98768.56;4907031;29;20104;-77
2024/01/16 03:39:34;;;;;;;12.60;8.43;;;;;;;-0.51;97.18;98765.09;4905951;29;20403;-77
2024/01/16 03:42:19;;;;;;;19.63;10.93;;;;;;;-0.49;97.52;98775.38;4894985;29;20063;-77
2024/01/16 03:45:06;;;;;;;20.40;11.73;;;;;;;-0.50;97.08;98771.97;4912423;29;20059;-77
2024/01/16 03:47:51;;;;;;;64.32;43.13;;;;;;;-0.48;97.04;98772.59;4894100;29;20063;-78
2024/01/16 03:50:37;;;;;;;18.33;9.52;;;;;;;-0.51;97.32;98772.94;4894797;29;20138;-76
2024/01/16 03:53:23;;;;;;;19.38;10.95;;;;;;;-0.52;97.04;98766.09;4892428;29;20051;-76
2024/01/16 03:56:08;;;;;;;22.67;14.55;;;;;;;-0.49;97.26;98770.97;4894668;29;20507;-79
2024/01/16 03:58:53;;;;;;;19.83;12.18;;;;;;;-0.48;97.11;98774.41;4895583;29;20052;-76
2024/01/16 04:01:40;;;;;;;16.55;9.60;;;;;;;-0.45;97.24;98786.31;4896240;29;20059;-77
2024/01/16 04:04:26;;;;;;;17.77;9.88;;;;;;;-0.44;97.60;98795.75;4895806;29;20482;-77
2024/01/16 04:07:11;;;;;;;14.65;8.43;;;;;;;-0.48;97.27;98808.34;4895064;29;20047;-78
2024/01/16 04:09:57;;;;;;;11.32;7.38;;;;;;;-0.47;97.14;98820.41;4913867;29;20063;-76
2024/01/16 04:12:43;;;;;;;12.32;7.43;;;;;;;-0.45;97.53;98828.06;4896051;29;20066;-77
2024/01/16 04:15:28;;;;;;;13.13;7.55;;;;;;;-0.50;97.49;98833.81;4906537;29;20055;-77
2024/01/16 04:18:14;;;;;;;11.77;6.85;;;;;;;-0.45;97.38;98828.06;4906288;29;20395;-77
2024/01/16 04:20:59;;;;;;;11.77;7.13;;;;;;;-0.47;97.09;98823.84;4906001;29;20486;-77
2024/01/16 04:23:45;;;;;;;9.77;6.85;;;;;;;-0.41;97.37;98842.41;4919776;29;20071;-78
2024/01/16 04:26:30;;;;;;;11.15;6.70;;;;;;;-0.41;96.86;98842.41;4893915;29;20411;-77
2024/01/16 04:29:16;;;;;;;14.50;7.20;;;;;;;-0.43;97.36;98850.44;4892725;29;20079;-77
2024/01/16 04:32:02;;;;;;;13.07;6.43;;;;;;;-0.37;97.18;98862.00;4905934;29;20067;-77
2024/01/16 04:34:47;;;;;;;10.48;5.88;;;;;;;-0.33;96.90;98868.50;4907093;29;20403;-77
2024/01/16 04:37:33;;;;;;;11.55;6.57;;;;;;;-0.39;96.81;98862.16;4909035;29;20055;-77
2024/01/16 04:40:18;;;;;;;12.95;6.82;;;;;;;-0.28;96.72;98887.91;4896704;29;20395;-77
2024/01/16 04:43:04;;;;;;;11.77;6.80;;;;;;;-0.29;97.04;98888.06;4897438;29;20383;-78
2024/01/16 04:45:49;;;;;;;15.45;7.85;;;;;;;-0.26;97.13;98906.00;4908679;29;20502;-77
2024/01/16 04:48:34;;;;;;;14.13;8.85;;;;;;;-0.36;96.82;98898.38;4897893;29;20483;-78
2024/01/16 04:51:20;;;;;;;13.52;8.40;;;;;;;-0.35;96.97;98909.63;4912427;29;20051;-78
2024/01/16 04:54:05;;;;;;;13.10;7.38;;;;;;;-0.32;96.49;98923.16;4907949;29;20059;-76
2024/01/16 04:56:50;;;;;;;13.85;9.73;;;;;;;-0.31;97.03;98926.59;4924329;29;20487;-76
2024/01/16 04:59:35;;;;;;;37.28;17.42;;;;;;;-0.35;96.19;98920.06;4922425;29;20051;-78
2024/01/16 05:02:20;;;;;;;36.78;15.02;;;;;;;-0.49;96.51;98909.34;4896787;29;20407;-77
2024/01/16 05:05:06;;;;;;;15.75;9.65;;;;;;;-0.37;96.45;98940.34;4888994;29;20079;-78
2024/01/16 05:07:51;;;;;;;11.38;6.45;;;;;;;-0.40;96.22;98941.47;4908902;29;20055;-76
2024/01/16 05:10:37;;;;;;;9.93;5.80;;;;;;;-0.41;96.46;98941.63;4907957;29;20435;-76
2024/01/16 05:13:22;;;;;;;16.55;7.15;;;;;;;-0.39;96.14;98948.31;4908628;29;20071;-77
2024/01/16 05:16:08;;;;;;;15.95;9.52;;;;;;;-0.49;96.18;98935.44;4915238;29;20399;-78
2024/01/16 05:18:53;;;;;;;18.88;10.40;;;;;;;-0.38;96.73;98954.34;4896297;29;20403;-77
2024/01/16 05:21:40;;;;;;;18.58;11.38;;;;;;;-0.40;95.56;98961.56;4896846;29;20059;-77
2024/01/16 05:24:26;;;;;;;15.10;9.35;;;;;;;-0.55;96.25;98936.09;4895797;29;20409;-77
2024/01/16 05:27:11;;;;;;;16.83;11.52;;;;;;;-0.44;96.39;98955.00;4896671;29;20075;-77
2024/01/16 05:29:57;;;;;;;12.82;7.47;;;;;;;-0.45;96.57;98966.44;4970689;28;20083;-77
2024/01/16 05:32:42;;;;;;;14.57;7.88;;;;;;;-0.48;96.46;98964.97;4897147;29;20388;-78
2024/01/16 05:35:28;;;;;;;20.95;11.10;;;;;;;-0.53;96.56;98965.47;4896333;29;20396;-78
2024/01/16 05:38:13;;;;;;;24.02;11.68;;;;;;;-0.50;96.68;98970.38;4908038;29;20075;-78
2024/01/16 05:40:58;;;;;;;19.40;10.75;;;;;;;-0.50;96.72;98967.75;4896412;29;20067;-77
2024/01/16 05:43:44;;;;;;;21.02;11.30;;;;;;;-0.61;96.79;98955.03;4928555;28;20392;-77
2024/01/16 05:46:31;;;;;;;18.90;10.23;;;;;;;-0.61;96.54;98962.88;4895036;29;20111;-78
2024/01/16 05:49:18;;;;;;;19.88;10.45;;;;;;;-0.55;97.12;98971.84;4896032;29;20079;-77
2024/01/16 05:52:03;;;;;;;25.92;12.80;;;;;;;-0.55;96.65;98983.09;4895779;29;20388;-78
2024/01/16 05:54:48;;;;;;;27.30;13.85;;;;;;;-0.59;97.06;98980.97;4921706;29;20074;-77
2024/01/16 05:57:34;;;;;;;32.25;15.77;;;;;;;-0.57;96.68;98982.44;4897169;29;20059;-77
2024/01/16 06:00:22;;;;;;;22.58;12.25;;;;;;;-0.58;96.69;98990.44;4896176;29;20056;-78
2024/01/16 06:03:08;;;;;;;21.88;11.32;;;;;;;-0.61;97.06;98995.97;4895818;29;20499;-77
2024/01/16 06:05:54;;;;;;;26.10;12.98;;;;;;;-0.63;96.96;98987.50;4894767;29;20075;-77
2024/01/16 06:08:39;;;;;;;23.02;12.55;;;;;;;-0.75;97.09;98981.81;4895927;29;20063;-77
2024/01/16 06:11:32;;;;;;;29.48;12.55;;;;;;;-0.59;96.90;98997.47;4897141;29;20070;-77
2024/01/16 06:14:21;;;;;;;24.65;14.27;;;;;;;-0.58;97.15;99004.28;4896742;29;20059;-77
2024/01/16 06:17:06;;;;;;;35.00;20.98;;;;;;;-0.62;96.71;98999.59;4904678;29;20055;-76
2024/01/16 06:19:51;;;;;;;37.35;20.25;;;;;;;-0.57;96.95;99029.41;4900489;29;20055;-76
2024/01/16 06:22:37;;;;;;;42.22;22.75;;;;;;;-0.62;97.16;99023.06;4896256;29;20071;-76
2024/01/16 06:25:23;;;;;;;100.30;41.55;;;;;;;-0.58;97.48;99034.81;4895728;29;20471;-78
2024/01/16 06:28:08;;;;;;;57.50;30.05;;;;;;;-0.53;97.20;99042.97;4894553;29;20060;-76
2024/01/16 06:30:53;;;;;;;65.47;31.90;;;;;;;-0.51;97.50;99054.88;4908595;29;20467;-76
2024/01/16 06:33:39;;;;;;;72.38;34.80;;;;;;;-0.52;97.35;99042.81;4895082;29;20059;-76
2024/01/16 06:36:25;;;;;;;57.65;31.17;;;;;;;-0.54;96.92;99034.31;4895805;29;20395;-76
2024/01/16 06:39:13;;;;;;;63.15;32.78;;;;;;;-0.44;97.37;99049.81;4907403;29;20063;-76
2024/01/16 06:41:59;;;;;;;66.43;33.67;;;;;;;-0.42;97.26;99067.94;4906735;29;20400;-76
2024/01/16 06:44:45;;;;;;;78.95;37.97;;;;;;;-0.51;96.96;99052.25;4895545;29;20055;-76
2024/01/16 06:47:31;;;;;;;73.05;34.53;;;;;;;-0.42;96.97;99086.22;4929173;28;20489;-76
2024/01/16 06:50:16;;;;;;;111.25;46.13;;;;;;;-0.47;97.16;99077.09;4982852;28;20411;-76
2024/01/16 06:53:01;;;;;;;141.52;57.35;;;;;;;-0.36;97.42;99094.22;4912098;29;20040;-76
2024/01/16 06:55:48;;;;;;;157.38;63.35;;;;;;;-0.38;97.05;99079.69;4913079;29;20047;-76
2024/01/16 06:58:35;;;;;;;173.80;69.72;;;;;;;-0.37;97.07;99100.41;4913008;29;20363;-76
2024/01/16 07:01:20;;;;;;;160.93;67.80;;;;;;;-0.33;96.99;99099.09;4971878;28;20052;-76
2024/01/16 07:04:06;;;;;;;140.77;59.22;;;;;;;-0.45;97.11;99091.75;4911382;29;20494;-77
2024/01/16 07:06:51;;;;;;;108.07;50.30;;;;;;;-0.28;96.76;99109.09;4911284;29;20048;-78
2024/01/16 07:09:37;;;;;;;103.82;47.65;;;;;;;-0.35;97.18;99087.19;4902187;29;20056;-77
2024/01/16 07:12:22;;;;;;;96.72;48.63;;;;;;;-0.27;97.47;99089.81;4913568;29;20468;-76
2024/01/16 07:15:08;;;;;;;136.23;64.43;;;;;;;-0.24;97.28;99100.75;4912414;29;20050;-78
2024/01/16 07:17:54;;;;;;;119.05;56.58;;;;;;;-0.17;97.12;99119.19;4912594;29;20040;-77
2024/01/16 07:20:39;;;;;;;94.18;49.03;;;;;;;-0.09;96.47;99121.81;4914255;29;20455;-77
2024/01/16 07:23:25;;;;;;;95.05;46.28;;;;;;;-0.15;96.92;99096.34;4913396;29;20490;-78
2024/01/16 07:26:10;;;;;;;79.95;44.67;;;;;;;0.02;96.65;99125.06;4903888;29;20051;-78
2024/01/16 07:28:56;;;;;;;86.70;47.00;;;;;;;0.07;96.89;99128.00;4962156;28;20086;-78
2024/01/16 07:31:42;;;;;;;78.28;43.60;;;;;;;0.16;96.30;99132.25;4904656;29;20066;-79
2024/01/16 07:34:27;;;;;;;71.78;41.00;;;;;;;0.27;96.36;99134.50;4896143;29;20043;-79
2024/01/16 07:37:13;;;;;;;74.50;39.72;;;;;;;0.33;95.82;99131.25;4896137;29;20067;-78
2024/01/16 07:39:58;;;;;;;72.15;42.40;;;;;;;0.32;95.60;99142.69;4901504;29;20063;-77
2024/01/16 07:42:44;;;;;;;85.35;47.30;;;;;;;0.31;95.64;99146.25;4907066;29;20055;-77
2024/01/16 07:45:29;;;;;;;95.68;52.53;;;;;;;0.34;94.90;99135.47;4945131;28;20482;-77
2024/01/16 07:48:15;;;;;;;99.05;54.50;;;;;;;0.39;94.85;99150.69;4925445;29;20494;-78
2024/01/16 07:51:01;;;;;;;96.93;46.75;;;;;;;0.50;94.39;99165.19;4931760;28;20055;-77
2024/01/16 07:53:48;;;;;;;90.95;46.50;;;;;;;0.53;94.46;99164.84;4918959;29;20063;-78
2024/01/16 07:56:35;;;;;;;181.40;86.18;;;;;;;0.57;94.31;99168.78;4931996;28;20078;-77
2024/01/16 07:59:20;;;;;;;191.48;91.70;;;;;;;0.65;93.63;99168.75;4910428;29;20064;-77
2024/01/16 08:02:06;;;;;;;194.55;95.60;;;;;;;0.79;93.09;99170.69;4906221;29;20079;-78
2024/01/16 08:04:52;;;;;;;178.20;87.57;;;;;;;0.85;93.61;99169.22;4894238;29;20047;-78
2024/01/16 08:07:37;;;;;;;151.48;78.63;;;;;;;0.85;92.97;99169.22;4909038;29;20062;-78
2024/01/16 08:10:21;;;;;;;;;;;;;;;0.82;92.89;99175.59;4915428;29;20491;-78
2024/01/16 08:13:06;;;;;;;120.10;61.13;;;;;;;0.83;91.90;99169.38;4908067;29;19918;-78
2024/01/16 08:15:52;;;;;;;109.72;58.35;;;;;;;1.02;92.35;99175.19;4915375;29;20055;-77
2024/01/16 08:18:37;;;;;;;116.65;56.55;;;;;;;1.06;91.28;99171.25;4916177;29;20055;-77
2024/01/16 08:21:23;;;;;;;97.03;49.75;;;;;;;0.95;91.04;99169.03;4914553;29;20059;-78
2024/01/16 08:24:08;;;;;;;90.60;45.42;;;;;;;1.16;90.57;99187.59;4926340;29;20096;-77
2024/01/16 08:26:53;;;;;;;71.70;38.35;;;;;;;1.24;90.12;99191.97;4899837;29;20087;-76
2024/01/16 08:29:38;;;;;;;79.22;41.53;;;;;;;1.28;90.51;99194.06;4896428;29;20092;-77
2024/01/16 08:32:23;;;;;;;83.75;43.75;;;;;;;1.46;89.57;99201.66;4908945;29;20399;-79
2024/01/16 08:35:09;;;;;;;70.25;39.67;;;;;;;1.45;88.58;99201.88;4915798;29;20415;-77
2024/01/16 08:37:56;;;;;;;80.13;41.45;;;;;;;1.45;88.92;99188.78;4896389;29;20079;-77
2024/01/16 08:40:41;;;;;;;84.82;44.80;;;;;;;1.49;88.70;99206.56;4896743;29;20051;-77
2024/01/16 08:43:27;;;;;;;88.15;44.75;;;;;;;1.47;88.50;99205.09;4909239;29;20071;-78
2024/01/16 08:46:13;;;;;;;77.75;42.80;;;;;;;1.50;89.04;99200.34;4901524;29;20075;-78
2024/01/16 08:48:58;;;;;;;84.63;47.55;;;;;;;1.44;88.67;99192.34;4911737;29;20478;-78
2024/01/16 08:51:43;;;;;;;88.95;49.00;;;;;;;1.74;88.46;99212.50;4916335;29;20059;-79
2024/01/16 08:54:29;;;;;;;88.78;46.72;;;;;;;1.70;87.06;99220.88;4901104;29;20487;-77
2024/01/16 08:57:15;;;;;;;95.20;50.05;;;;;;;1.76;87.24;99217.56;4909258;29;20400;-76
2024/01/16 09:00:02;;;;;;;85.20;44.90;;;;;;;1.57;86.59;99219.63;4915568;29;20131;-79
2024/01/16 09:02:48;;;;;;;87.40;43.95;;;;;;;1.54;85.51;99221.78;4930963;29;20055;-78
2024/01/16 09:05:38;;;;;;;87.10;46.85;;;;;;;1.79;86.77;99230.34;4930540;29;20403;-78
2024/01/16 09:08:23;;;;;;;85.72;45.42;;;;;;;1.90;86.60;99243.03;4910537;29;20051;-77
2024/01/16 09:11:09;;;;;;;96.63;46.95;;;;;;;2.02;85.72;99241.63;4909731;29;20426;-77
2024/01/16 09:13:54;;;;;;;89.68;46.85;;;;;;;1.89;84.96;99251.88;4916075;28;20762;-77
2024/01/16 09:16:40;;;;;;;87.05;46.70;;;;;;;1.97;85.71;99258.88;4919080;28;20051;-76
2024/01/16 09:19:26;;;;;;;84.70;46.35;;;;;;;1.89;85.11;99266.81;4915259;29;20414;-77
2024/01/16 09:22:11;;;;;;;89.03;48.17;;;;;;;1.84;85.25;99249.75;4895618;29;20066;-77
2024/01/16 09:24:57;;;;;;;105.95;57.13;;;;;;;2.15;86.78;99253.34;4915040;29;20059;-77
2024/01/16 09:27:42;;;;;;;88.60;47.80;;;;;;;2.33;85.08;99263.56;4908455;29;20079;-77
2024/01/16 09:30:28;;;;;;;81.22;45.50;;;;;;;2.49;84.49;99268.69;4908263;29;20051;-78
2024/01/16 09:33:16;;;;;;;187.35;74.95;;;;;;;2.64;84.83;99266.91;4912407;29;20043;-77
2024/01/16 09:36:02;;;;;;;70.28;38.33;;;;;;;2.65;81.95;99263.28;4914254;29;20070;-76
2024/01/16 09:38:48;;;;;;;64.93;34.97;;;;;;;2.67;82.16;99269.19;4982261;28;20051;-77
2024/01/16 09:41:35;;;;;;;67.28;35.80;;;;;;;2.76;82.37;99262.06;4914927;29;20071;-78
2024/01/16 09:44:20;;;;;;;84.38;44.13;;;;;;;2.53;83.02;99265.50;4913636;29;20482;-77
2024/01/16 09:47:07;;;;;;;77.22;41.78;;;;;;;2.57;82.72;99266.00;4892842;29;20070;-77
2024/01/16 09:49:53;;;;;;;77.47;41.70;;;;;;;2.63;83.05;99267.88;4909841;29;20071;-77
2024/01/16 09:52:38;;;;;;;81.95;42.22;;;;;;;2.60;82.72;99278.75;4920241;28;20075;-77
2024/01/16 09:55:23;;;;;;;59.10;34.60;;;;;;;2.78;81.84;99278.41;4909611;29;20071;-78
2024/01/16 09:58:11;;;;;;;63.30;34.85;;;;;;;2.86;81.80;99290.69;4903122;29;20159;-77
2024/01/16 10:00:56;;;;;;;70.75;39.35;;;;;;;2.70;81.28;99286.38;4924740;29;20494;-79
2024/01/16 10:03:45;;;;;;;74.03;42.13;;;;;;;2.69;81.54;99277.66;4915910;29;20070;-77
2024/01/16 10:06:33;;;;;;;44.63;25.00;;;;;;;2.67;81.29;99292.78;4904400;29;20059;-77
2024/01/16 10:09:18;;;;;;;44.72;26.63;;;;;;;2.81;80.80;99279.88;4894935;29;20075;-78
2024/01/16 10:12:06;;;;;;;41.08;24.17;;;;;;;2.92;81.14;99289.97;4902194;29;20055;-79
2024/01/16 10:14:52;;;;;;;39.90;23.08;;;;;;;3.11;81.14;99299.13;4914511;29;20054;-77
2024/01/16 10:17:39;;;;;;;39.85;24.65;;;;;;;3.06;80.24;99296.22;4921756;29;20054;-76
2024/01/16 10:20:36;;;;;;;43.63;26.58;;;;;;;3.07;81.22;99288.19;4900796;29;20482;-79
2024/01/16 10:23:29;;;;;;;49.30;27.50;;;;;;;3.01;80.46;99291.53;4963809;28;20054;-78
2024/01/16 10:26:15;;;;;;;46.20;27.23;;;;;;;3.08;81.53;99274.03;4914423;29;20051;-79
2024/01/16 10:29:04;;;;;;;45.22;26.10;;;;;;;3.03;79.85;99286.88;4918213;29;20058;-78
2024/01/16 10:31:51;;;;;;;44.22;25.65;;;;;;;3.18;81.37;99285.09;4906287;29;20071;-78
2024/01/16 10:34:36;;;;;;;41.72;24.10;;;;;;;3.04;79.75;99275.41;4916194;29;20059;-77
2024/01/16 10:37:22;;;;;;;52.38;28.58;;;;;;;3.22;80.55;99270.59;4895149;29;20071;-78
2024/01/16 10:40:08;;;;;;;41.05;22.95;;;;;;;3.06;79.01;99270.78;4912761;29;20490;-77
2024/01/16 10:43:03;;;;;;;43.88;24.17;;;;;;;2.95;79.98;99279.09;4919227;29;20051;-77
2024/01/16 10:45:49;;;;;;;40.67;23.20;;;;;;;2.96;79.57;99285.97;4981704;28;20070;-78
2024/01/16 10:48:34;;;;;;;35.33;21.25;;;;;;;2.98;79.75;99286.63;4914431;29;20067;-79
2024/01/16 10:51:19;;;;;;;32.72;19.92;;;;;;;3.15;79.12;99280.19;4914992;29;20513;-77
2024/01/16 10:54:10;;;;;;;32.45;19.10;;;;;;;2.94;78.09;99283.50;4982906;28;20066;-77
2024/01/16 10:56:57;;;;;;;36.92;20.83;;;;;;;3.08;77.44;99274.03;4911181;29;20058;-78
2024/01/16 10:59:48;;;;;;;36.17;20.83;;;;;;;3.38;78.52;99263.53;4931582;28;20051;-78
2024/01/16 11:02:44;;;;;;;30.27;18.30;;;;;;;3.38;77.75;99276.66;4913155;29;20131;-78
2024/01/16 11:05:35;;;;;;;20.10;11.40;;;;;;;2.86;74.46;99265.22;4900238;29;20070;-78
2024/01/16 11:08:22;;;;;;;21.17;12.80;;;;;;;3.19;76.64;99264.88;4925686;29;20055;-76
2024/01/16 11:11:07;;;;;;;20.42;12.40;;;;;;;3.35;75.18;99254.19;4912727;29;20082;-77
2024/01/16 11:13:54;;;;;;;21.45;12.70;;;;;;;3.48;76.11;99243.88;4912278;29;20043;-77
2024/01/16 11:16:40;;;;;;;16.25;10.00;;;;;;;3.63;73.04;99243.03;4975346;28;20109;-78
2024/01/16 11:19:26;;;;;;;18.55;11.40;;;;;;;3.76;72.58;99263.38;4918995;29;20482;-78
2024/01/16 11:22:11;;;;;;;26.55;15.55;;;;;;;3.67;74.59;99255.63;4926445;29;20063;-77
2024/01/16 11:25:09;;;;;;;27.80;14.85;;;;;;;3.72;74.01;99250.63;4913037;29;20059;-77
2024/01/16 11:28:13;;;;;;;21.40;13.20;;;;;;;3.76;73.13;99250.25;4907256;29;20067;-79
2024/01/16 11:31:36;;;;;;;20.23;12.70;;;;;;;3.68;73.26;99238.03;4893178;29;20051;-79
2024/01/16 11:34:49;;;;;;;21.92;11.25;;;;;;;3.91;73.78;99248.41;4900519;29;20063;-78
2024/01/16 11:37:36;;;;;;;18.00;10.90;;;;;;;3.98;72.41;99244.03;4894329;29;20055;-79
2024/01/16 11:40:23;;;;;;;17.17;11.63;;;;;;;3.88;73.19;99231.16;4908671;29;20402;-76
2024/01/16 11:43:37;;;;;;;26.27;15.57;;;;;;;4.07;72.29;99240.25;4908932;29;20376;-77
2024/01/16 11:47:01;;;;;;;20.02;10.55;;;;;;;4.10;71.56;99226.75;4917013;29;20059;-79
2024/01/16 11:49:51;;;;;;;18.50;11.23;;;;;;;3.98;71.44;99220.38;4903792;29;20056;-78
2024/01/16 11:52:44;;;;;;;19.52;11.68;;;;;;;4.08;71.82;99231.41;4910375;29;20067;-78
2024/01/16 11:55:31;;;;;;;19.77;11.88;;;;;;;4.02;71.64;99241.84;4925757;28;20055;-78
2024/01/16 11:58:42;;;;;;;18.77;10.80;;;;;;;4.07;72.38;99223.69;4904792;29;20497;-78
2024/01/16 12:01:29;;;;;;;20.77;12.25;;;;;;;4.04;70.20;99230.16;4904120;29;20067;-76
2024/01/16 12:04:14;;;;;;;24.23;13.00;;;;;;;4.04;71.56;99243.31;4899975;29;20067;-77
2024/01/16 12:07:00;;;;;;;31.20;14.45;;;;;;;4.06;71.90;99235.22;4936654;28;20051;-77
2024/01/16 12:09:45;;;;;;;21.02;13.02;;;;;;;3.96;71.64;99230.25;4898915;29;20071;-77
2024/01/16 12:12:30;;;;;;;16.08;8.75;;;;;;;4.01;69.59;99227.91;4893155;29;20403;-78
2024/01/16 12:15:18;;;;;;;13.30;8.20;;;;;;;4.06;70.00;99228.13;4899685;29;20048;-78
2024/01/16 12:18:04;;;;;;;19.30;10.90;;;;;;;4.17;70.02;99230.28;4915243;29;20118;-80
2024/01/16 12:20:49;;;;;;;23.77;12.50;;;;;;;4.07;68.62;99216.59;4904552;29;20054;-78
2024/01/16 12:23:35;;;;;;;21.90;11.63;;;;;;;4.05;69.14;99226.50;4899188;29;20467;-78
2024/01/16 12:26:22;;;;;;;27.92;14.38;;;;;;;3.94;68.69;99227.81;4892435;29;20078;-78
2024/01/16 12:29:09;;;;;;;37.25;18.30;;;;;;;3.90;69.44;99226.56;4893302;29;20074;-77
2024/01/16 12:32:11;;;;;;;22.83;13.45;;;;;;;3.92;69.53;99219.31;4892464;29;20514;-78
2024/01/16 12:34:56;;;;;;;23.15;12.90;;;;;;;3.91;68.20;99230.81;4893908;29;20055;-77
2024/01/16 12:37:42;;;;;;;25.10;12.07;;;;;;;4.06;69.73;99233.38;4917635;29;20141;-77
2024/01/16 12:40:29;;;;;;;41.25;15.77;;;;;;;4.05;70.34;99218.63;4908084;29;20483;-77
2024/01/16 12:43:16;;;;;;;16.58;9.75;;;;;;;4.12;69.92;99219.50;4909514;29;20055;-77
2024/01/16 12:46:01;;;;;;;14.70;8.68;;;;;;;4.18;69.89;99229.25;4905659;29;20478;-79
2024/01/16 12:48:47;;;;;;;14.32;8.45;;;;;;;4.10;66.78;99218.84;4906223;29;20063;-77
2024/01/16 12:51:34;;;;;;;10.93;7.32;;;;;;;4.17;66.78;99224.19;4910102;29;20479;-77